Terminal Aerodrome Forecast
Issued by NWS Sioux Falls, SD

Home | Current Version | Previous Version | Text Only | Print | Product List | Glossary On
Versions: 1 2 3 4 5 6 7 8 9 10 11 12 13 14 15 16 17 18 19 20 21 22 23 24 25 26 27 28 29 30
000
FTUS43 KFSD 011743 CCA
TAFSUX
TAF COR
KSUX 011743Z 0118/0218 20009KT P6SM BKN200
     FM011900 19012G17KT P6SM SCT120 BKN200
     FM012300 15009KT P6SM BKN110
      TEMPO 0201/0204 5SM TSRA BKN070CB
     FM021000 15010KT P6SM SCT090 WS015/20040KT
      TEMPO 0211/0214 4SM BR
     FM021500 17011G17KT P6SM SKC=

USA.gov is the U.S. government's official web portal to all federal, state and local government web resources and services.